AZU2732 SBKP-SBCX
Flight info
| Callsign | AZU2732 |
|---|---|
| Flight time | 1h 10m |
| Altitude | 38000 |
| Route | SOVSI DCT ARTUT UZ38 VUKMO |
| Aircraft | A20N/M-SDE2E3FGHIRWXY/LB1 |
Departure
| Time | 2026-05-09 00:39 |
|---|---|
| Airport | Viracopos International Airport (SBKP) |
Arrival
| Time | 2026-05-09 01:50 |
|---|---|
| Airport | Hugo Cantergiani Regional Airport (SBCX) |
| Time | Latitude | Longitude | Altitude | Speed | Heading |
|---|---|---|---|---|---|
| 2026-05-09 00:10 | -23.00455 | -47.14790 | 2169 ft | 0 kts | 217° |
| 2026-05-09 00:19 | -23.00454 | -47.14789 | 2169 ft | 2 kts | 217° |
| 2026-05-09 00:19 | -23.00433 | -47.14775 | 2163 ft | 4 kts | 195° |
| 2026-05-09 00:19 | -23.00409 | -47.14775 | 2160 ft | 4 kts | 147° |
| 2026-05-09 00:19 | -23.00398 | -47.14785 | 2163 ft | 1 kts | 128° |
| 2026-05-09 00:20 | -23.00397 | -47.14787 | 2163 ft | 0 kts | 128° |
| 2026-05-09 00:28 | -23.00397 | -47.14786 | 2169 ft | 1 kts | 128° |
| 2026-05-09 00:29 | -23.00420 | -47.14756 | 2164 ft | 7 kts | 129° |
| 2026-05-09 00:29 | -23.00416 | -47.14730 | 2164 ft | 3 kts | 24° |
| 2026-05-09 00:29 | -23.00394 | -47.14724 | 2167 ft | 4 kts | 16° |
| 2026-05-09 00:29 | -23.00352 | -47.14704 | 2168 ft | 9 kts | 36° |
| 2026-05-09 00:30 | -23.00294 | -47.14654 | 2163 ft | 13 kts | 39° |
| 2026-05-09 00:30 | -23.00215 | -47.14588 | 2163 ft | 15 kts | 37° |
| 2026-05-09 00:30 | -23.00223 | -47.14487 | 2161 ft | 15 kts | 122° |
| 2026-05-09 00:30 | -23.00286 | -47.14402 | 2166 ft | 15 kts | 129° |
| 2026-05-09 00:31 | -23.00347 | -47.14316 | 2164 ft | 14 kts | 127° |
| 2026-05-09 00:31 | -23.00404 | -47.14235 | 2168 ft | 13 kts | 128° |
| 2026-05-09 00:31 | -23.00459 | -47.14159 | 2159 ft | 12 kts | 128° |
| 2026-05-09 00:31 | -23.00509 | -47.14089 | 2164 ft | 11 kts | 128° |
| 2026-05-09 00:32 | -23.00554 | -47.14025 | 2165 ft | 10 kts | 128° |
| 2026-05-09 00:32 | -23.00594 | -47.13970 | 2164 ft | 9 kts | 128° |
| 2026-05-09 00:32 | -23.00628 | -47.13922 | 2162 ft | 7 kts | 128° |
| 2026-05-09 00:32 | -23.00657 | -47.13881 | 2166 ft | 6 kts | 128° |
| 2026-05-09 00:33 | -23.00682 | -47.13848 | 2165 ft | 5 kts | 128° |
| 2026-05-09 00:33 | -23.00701 | -47.13821 | 2162 ft | 4 kts | 128° |
| 2026-05-09 00:33 | -23.00716 | -47.13801 | 2165 ft | 3 kts | 128° |
| 2026-05-09 00:33 | -23.00753 | -47.13750 | 2164 ft | 17 kts | 129° |
| 2026-05-09 00:34 | -23.00836 | -47.13633 | 2162 ft | 20 kts | 127° |
| 2026-05-09 00:34 | -23.00920 | -47.13516 | 2164 ft | 17 kts | 128° |
| 2026-05-09 00:34 | -23.00999 | -47.13408 | 2166 ft | 19 kts | 128° |
| 2026-05-09 00:34 | -23.01082 | -47.13290 | 2165 ft | 21 kts | 128° |
| 2026-05-09 00:35 | -23.01174 | -47.13163 | 2164 ft | 22 kts | 128° |
| 2026-05-09 00:35 | -23.01229 | -47.13086 | 2167 ft | 9 kts | 128° |
| 2026-05-09 00:35 | -23.01263 | -47.13037 | 2163 ft | 8 kts | 128° |
| 2026-05-09 00:35 | -23.01304 | -47.12981 | 2166 ft | 11 kts | 128° |
| 2026-05-09 00:36 | -23.01358 | -47.12906 | 2163 ft | 14 kts | 127° |
| 2026-05-09 00:36 | -23.01426 | -47.12811 | 2165 ft | 18 kts | 128° |
| 2026-05-09 00:36 | -23.01508 | -47.12696 | 2162 ft | 21 kts | 127° |
| 2026-05-09 00:36 | -23.01598 | -47.12568 | 2163 ft | 22 kts | 127° |
| 2026-05-09 00:37 | -23.01696 | -47.12431 | 2161 ft | 24 kts | 128° |
| 2026-05-09 00:37 | -23.01743 | -47.12305 | 2164 ft | 17 kts | 57° |
| 2026-05-09 00:37 | -23.01721 | -47.12283 | 2165 ft | 0 kts | 39° |
| 2026-05-09 00:38 | -23.01704 | -47.12268 | 2161 ft | 7 kts | 39° |
| 2026-05-09 00:38 | -23.01641 | -47.12241 | 2166 ft | 13 kts | 352° |
| 2026-05-09 00:38 | -23.01556 | -47.12308 | 2162 ft | 16 kts | 308° |
| 2026-05-09 00:38 | -23.01549 | -47.12318 | 2165 ft | 5 kts | 308° |
| 2026-05-09 00:39 | -23.01353 | -47.12592 | 2165 ft | 85 kts | 308° |
| 2026-05-09 00:39 | -23.00856 | -47.13285 | 2166 ft | 145 kts | 308° |
| 2026-05-09 00:39 | -23.00131 | -47.14286 | 2254 ft | 185 kts | 309° |
| 2026-05-09 00:39 | -22.99496 | -47.15533 | 2889 ft | 194 kts | 279° |
| 2026-05-09 00:40 | -22.99619 | -47.17012 | 3546 ft | 202 kts | 260° |
| 2026-05-09 00:40 | -23.00067 | -47.18527 | 3852 ft | 227 kts | 256° |
| 2026-05-09 00:40 | -23.00643 | -47.20227 | 4221 ft | 252 kts | 255° |
| 2026-05-09 00:41 | -23.02178 | -47.23909 | 5539 ft | 286 kts | 231° |
| 2026-05-09 00:41 | -23.03725 | -47.25320 | 6419 ft | 293 kts | 223° |
| 2026-05-09 00:41 | -23.05331 | -47.26701 | 7283 ft | 296 kts | 223° |
| 2026-05-09 00:41 | -23.06946 | -47.28124 | 7785 ft | 300 kts | 224° |
| 2026-05-09 00:42 | -23.08556 | -47.29560 | 7952 ft | 300 kts | 224° |
| 2026-05-09 00:42 | -23.10166 | -47.30999 | 7987 ft | 300 kts | 224° |
| 2026-05-09 00:42 | -23.11781 | -47.32433 | 7985 ft | 299 kts | 222° |
| 2026-05-09 00:42 | -23.13599 | -47.33531 | 7982 ft | 306 kts | 203° |
| 2026-05-09 00:43 | -23.15728 | -47.33947 | 8275 ft | 320 kts | 182° |
| 2026-05-09 00:43 | -23.17945 | -47.33873 | 9277 ft | 319 kts | 180° |
| 2026-05-09 00:43 | -23.20172 | -47.33815 | 10183 ft | 322 kts | 180° |
| 2026-05-09 00:43 | -23.22486 | -47.33769 | 10523 ft | 345 kts | 181° |
| 2026-05-09 00:44 | -23.24940 | -47.33723 | 11036 ft | 357 kts | 181° |
| 2026-05-09 00:44 | -23.27447 | -47.33670 | 11783 ft | 362 kts | 181° |
| 2026-05-09 00:44 | -23.29991 | -47.33609 | 12568 ft | 366 kts | 181° |
| 2026-05-09 00:44 | -23.32547 | -47.33543 | 13352 ft | 369 kts | 181° |
| 2026-05-09 00:45 | -23.35108 | -47.33707 | 14059 ft | 369 kts | 192° |
| 2026-05-09 00:45 | -23.37653 | -47.34159 | 14689 ft | 372 kts | 193° |
| 2026-05-09 00:45 | -23.40220 | -47.34619 | 15312 ft | 375 kts | 193° |
| 2026-05-09 00:45 | -23.42776 | -47.35077 | 15910 ft | 379 kts | 193° |
| 2026-05-09 00:46 | -23.45401 | -47.35548 | 16522 ft | 383 kts | 193° |
| 2026-05-09 00:46 | -23.48047 | -47.36023 | 17115 ft | 387 kts | 193° |
| 2026-05-09 00:46 | -23.50717 | -47.36500 | 17712 ft | 390 kts | 193° |
| 2026-05-09 00:46 | -23.53415 | -47.36981 | 18302 ft | 394 kts | 193° |
| 2026-05-09 00:47 | -23.56139 | -47.37466 | 18817 ft | 398 kts | 193° |
| 2026-05-09 00:47 | -23.58878 | -47.37954 | 19363 ft | 400 kts | 193° |
| 2026-05-09 00:47 | -23.61605 | -47.38443 | 19906 ft | 402 kts | 194° |
| 2026-05-09 00:47 | -23.64384 | -47.38941 | 20456 ft | 405 kts | 194° |
| 2026-05-09 00:48 | -23.67179 | -47.39442 | 20978 ft | 408 kts | 194° |
| 2026-05-09 00:48 | -23.69992 | -47.39947 | 21511 ft | 410 kts | 194° |
| 2026-05-09 00:48 | -23.72815 | -47.40453 | 22043 ft | 412 kts | 194° |
| 2026-05-09 00:48 | -23.75656 | -47.40962 | 22538 ft | 415 kts | 195° |
| 2026-05-09 00:49 | -23.78486 | -47.41467 | 23065 ft | 417 kts | 195° |
| 2026-05-09 00:49 | -23.81358 | -47.41981 | 23585 ft | 419 kts | 195° |
| 2026-05-09 00:49 | -23.84244 | -47.42499 | 24010 ft | 421 kts | 195° |
| 2026-05-09 00:49 | -23.87148 | -47.43018 | 24418 ft | 424 kts | 195° |
| 2026-05-09 00:50 | -23.90076 | -47.43541 | 24825 ft | 427 kts | 195° |
| 2026-05-09 00:50 | -23.93017 | -47.44071 | 25246 ft | 429 kts | 195° |
| 2026-05-09 00:50 | -23.95979 | -47.44605 | 25662 ft | 431 kts | 195° |
| 2026-05-09 00:50 | -23.98908 | -47.45130 | 26080 ft | 433 kts | 195° |
| 2026-05-09 00:51 | -24.01889 | -47.45664 | 26488 ft | 435 kts | 195° |
| 2026-05-09 00:51 | -24.04891 | -47.46202 | 26889 ft | 437 kts | 195° |
| 2026-05-09 00:51 | -24.07903 | -47.46743 | 27286 ft | 439 kts | 195° |
| 2026-05-09 00:51 | -24.10890 | -47.47430 | 27674 ft | 436 kts | 202° |
| 2026-05-09 00:52 | -24.13751 | -47.48529 | 28069 ft | 435 kts | 206° |
| 2026-05-09 00:52 | -24.16599 | -47.49703 | 28451 ft | 437 kts | 206° |
| 2026-05-09 00:52 | -24.19426 | -47.50867 | 28817 ft | 439 kts | 206° |
| 2026-05-09 00:52 | -24.22296 | -47.52045 | 29208 ft | 442 kts | 206° |
| 2026-05-09 00:53 | -24.25190 | -47.53231 | 29582 ft | 444 kts | 206° |
| 2026-05-09 00:53 | -24.28090 | -47.54421 | 29952 ft | 446 kts | 206° |
| 2026-05-09 00:53 | -24.31009 | -47.55620 | 30257 ft | 448 kts | 206° |
| 2026-05-09 00:53 | -24.33932 | -47.56827 | 30548 ft | 450 kts | 206° |
| 2026-05-09 00:54 | -24.36871 | -47.58040 | 30851 ft | 452 kts | 206° |
| 2026-05-09 00:54 | -24.39787 | -47.59241 | 31131 ft | 454 kts | 206° |
| 2026-05-09 00:54 | -24.42751 | -47.60458 | 31421 ft | 456 kts | 206° |
| 2026-05-09 00:54 | -24.45722 | -47.61676 | 31777 ft | 455 kts | 206° |
| 2026-05-09 00:55 | -24.48684 | -47.62895 | 32180 ft | 454 kts | 206° |
| 2026-05-09 00:55 | -24.51645 | -47.64119 | 32584 ft | 453 kts | 206° |
| 2026-05-09 00:55 | -24.54594 | -47.65341 | 32973 ft | 452 kts | 206° |
| 2026-05-09 00:55 | -24.57546 | -47.66562 | 33389 ft | 451 kts | 206° |
| 2026-05-09 00:56 | -24.60484 | -47.67771 | 33786 ft | 450 kts | 206° |
| 2026-05-09 00:56 | -24.63415 | -47.68976 | 34176 ft | 449 kts | 206° |
| 2026-05-09 00:56 | -24.66297 | -47.70164 | 34490 ft | 448 kts | 207° |
| 2026-05-09 00:56 | -24.69221 | -47.71374 | 34800 ft | 447 kts | 207° |
| 2026-05-09 00:57 | -24.72130 | -47.72583 | 35144 ft | 446 kts | 207° |
| 2026-05-09 00:57 | -24.75024 | -47.73789 | 35488 ft | 444 kts | 207° |
| 2026-05-09 00:57 | -24.77912 | -47.74989 | 35804 ft | 443 kts | 207° |
| 2026-05-09 00:57 | -24.80792 | -47.76180 | 35895 ft | 439 kts | 207° |
| 2026-05-09 00:58 | -24.86468 | -47.78523 | 35909 ft | 432 kts | 207° |
| 2026-05-09 00:58 | -24.92093 | -47.80867 | 35925 ft | 432 kts | 208° |
| 2026-05-09 00:59 | -24.97716 | -47.83215 | 35915 ft | 432 kts | 208° |
| 2026-05-09 00:59 | -25.03323 | -47.85544 | 35915 ft | 432 kts | 208° |
| 2026-05-09 01:00 | -25.08954 | -47.87889 | 35914 ft | 432 kts | 208° |
| 2026-05-09 01:00 | -25.14585 | -47.90240 | 35915 ft | 432 kts | 208° |
| 2026-05-09 01:01 | -25.20220 | -47.92592 | 35932 ft | 432 kts | 208° |
| 2026-05-09 01:01 | -25.25811 | -47.94932 | 35923 ft | 432 kts | 208° |
| 2026-05-09 01:02 | -25.31446 | -47.97281 | 35918 ft | 432 kts | 208° |
| 2026-05-09 01:02 | -25.37085 | -47.99638 | 35912 ft | 432 kts | 208° |
| 2026-05-09 01:03 | -25.42684 | -48.01988 | 35911 ft | 432 kts | 208° |
| 2026-05-09 01:03 | -25.48326 | -48.04356 | 35903 ft | 433 kts | 208° |
| 2026-05-09 01:04 | -25.53988 | -48.06734 | 35894 ft | 434 kts | 208° |
| 2026-05-09 01:04 | -25.59619 | -48.09098 | 35892 ft | 435 kts | 208° |
| 2026-05-09 01:05 | -25.64998 | -48.11984 | 35892 ft | 423 kts | 220° |
| 2026-05-09 01:06 | -25.72412 | -48.17281 | 35892 ft | 424 kts | 220° |
| 2026-05-09 01:06 | -25.77391 | -48.20815 | 35897 ft | 425 kts | 220° |
| 2026-05-09 01:07 | -25.82382 | -48.24365 | 35879 ft | 426 kts | 220° |
| 2026-05-09 01:07 | -25.87385 | -48.27936 | 35879 ft | 427 kts | 220° |
| 2026-05-09 01:08 | -25.92394 | -48.31524 | 35884 ft | 428 kts | 220° |
| 2026-05-09 01:08 | -25.97382 | -48.35093 | 35910 ft | 434 kts | 220° |
| 2026-05-09 01:09 | -26.02536 | -48.38789 | 35905 ft | 447 kts | 220° |
| 2026-05-09 01:09 | -26.07850 | -48.42610 | 35907 ft | 460 kts | 220° |
| 2026-05-09 01:10 | -26.13267 | -48.46501 | 35899 ft | 465 kts | 220° |
| 2026-05-09 01:10 | -26.18696 | -48.50385 | 35902 ft | 466 kts | 220° |
| 2026-05-09 01:11 | -26.24153 | -48.54303 | 35889 ft | 466 kts | 220° |
| 2026-05-09 01:11 | -26.28699 | -48.57579 | 35899 ft | 466 kts | 220° |
| 2026-05-09 01:12 | -26.34159 | -48.61518 | 35902 ft | 466 kts | 220° |
| 2026-05-09 01:12 | -26.39581 | -48.65435 | 35923 ft | 467 kts | 220° |
| 2026-05-09 01:13 | -26.45048 | -48.69384 | 35904 ft | 467 kts | 221° |
| 2026-05-09 01:13 | -26.50461 | -48.73325 | 35900 ft | 467 kts | 221° |
| 2026-05-09 01:14 | -26.55902 | -48.77340 | 35895 ft | 467 kts | 221° |
| 2026-05-09 01:14 | -26.61299 | -48.81336 | 35889 ft | 468 kts | 221° |
| 2026-05-09 01:15 | -26.66743 | -48.85366 | 35913 ft | 468 kts | 221° |
| 2026-05-09 01:15 | -26.72174 | -48.89339 | 35905 ft | 469 kts | 221° |
| 2026-05-09 01:16 | -26.77657 | -48.93326 | 35906 ft | 469 kts | 221° |
| 2026-05-09 01:16 | -26.83134 | -48.97327 | 35899 ft | 469 kts | 221° |
| 2026-05-09 01:17 | -26.91301 | -49.03324 | 35906 ft | 470 kts | 221° |
| 2026-05-09 01:17 | -26.96771 | -49.07336 | 35908 ft | 470 kts | 221° |
| 2026-05-09 01:18 | -27.02253 | -49.11351 | 35938 ft | 470 kts | 223° |
| 2026-05-09 01:18 | -27.07694 | -49.15350 | 35936 ft | 469 kts | 223° |
| 2026-05-09 01:19 | -27.13155 | -49.19371 | 35943 ft | 469 kts | 223° |
| 2026-05-09 01:19 | -27.18571 | -49.23363 | 35944 ft | 469 kts | 223° |
| 2026-05-09 01:20 | -27.24069 | -49.27420 | 35955 ft | 469 kts | 223° |
| 2026-05-09 01:20 | -27.29500 | -49.31430 | 35976 ft | 470 kts | 223° |
| 2026-05-09 01:21 | -27.34950 | -49.35467 | 35961 ft | 468 kts | 223° |
| 2026-05-09 01:21 | -27.40390 | -49.39496 | 35961 ft | 468 kts | 223° |
| 2026-05-09 01:22 | -27.45848 | -49.43535 | 35962 ft | 469 kts | 223° |
| 2026-05-09 01:22 | -27.51293 | -49.47577 | 35973 ft | 469 kts | 223° |
| 2026-05-09 01:23 | -27.56703 | -49.51598 | 35971 ft | 469 kts | 223° |
| 2026-05-09 01:23 | -27.62168 | -49.55656 | 35992 ft | 468 kts | 223° |
| 2026-05-09 01:24 | -27.67590 | -49.59680 | 35984 ft | 469 kts | 223° |
| 2026-05-09 01:24 | -27.73046 | -49.63726 | 35991 ft | 469 kts | 223° |
| 2026-05-09 01:25 | -27.78434 | -49.67652 | 35990 ft | 447 kts | 223° |
| 2026-05-09 01:25 | -27.83646 | -49.71319 | 35999 ft | 437 kts | 223° |
| 2026-05-09 01:26 | -27.88750 | -49.74952 | 36065 ft | 435 kts | 223° |
| 2026-05-09 01:26 | -27.93882 | -49.78634 | 35998 ft | 436 kts | 224° |
| 2026-05-09 01:27 | -27.99027 | -49.82325 | 36004 ft | 438 kts | 224° |
| 2026-05-09 01:27 | -28.04150 | -49.85990 | 36005 ft | 438 kts | 224° |
| 2026-05-09 01:28 | -28.09301 | -49.89675 | 36003 ft | 437 kts | 224° |
| 2026-05-09 01:28 | -28.14464 | -49.93380 | 35971 ft | 440 kts | 224° |
| 2026-05-09 01:29 | -28.19616 | -49.97092 | 36021 ft | 441 kts | 224° |
| 2026-05-09 01:29 | -28.24817 | -50.00832 | 35500 ft | 440 kts | 224° |
| 2026-05-09 01:30 | -28.27419 | -50.02707 | 34148 ft | 447 kts | 224° |
| 2026-05-09 01:30 | -28.30050 | -50.04606 | 32931 ft | 448 kts | 224° |
| 2026-05-09 01:30 | -28.32672 | -50.06489 | 31922 ft | 443 kts | 223° |
| 2026-05-09 01:30 | -28.35254 | -50.08338 | 31016 ft | 436 kts | 224° |
| 2026-05-09 01:31 | -28.37798 | -50.10163 | 30160 ft | 429 kts | 224° |
| 2026-05-09 01:31 | -28.40256 | -50.11929 | 29517 ft | 415 kts | 224° |
| 2026-05-09 01:31 | -28.42657 | -50.13650 | 29098 ft | 403 kts | 224° |
| 2026-05-09 01:31 | -28.45009 | -50.15345 | 28642 ft | 397 kts | 224° |
| 2026-05-09 01:32 | -28.47321 | -50.17020 | 28215 ft | 391 kts | 224° |
| 2026-05-09 01:32 | -28.49597 | -50.18676 | 27813 ft | 387 kts | 225° |
| 2026-05-09 01:32 | -28.51859 | -50.20323 | 27367 ft | 384 kts | 225° |
| 2026-05-09 01:32 | -28.54074 | -50.21935 | 26912 ft | 380 kts | 225° |
| 2026-05-09 01:33 | -28.56301 | -50.23553 | 26462 ft | 377 kts | 225° |
| 2026-05-09 01:33 | -28.58506 | -50.25154 | 26016 ft | 375 kts | 225° |
| 2026-05-09 01:33 | -28.60698 | -50.26748 | 25557 ft | 373 kts | 225° |
| 2026-05-09 01:33 | -28.62887 | -50.28339 | 25085 ft | 372 kts | 225° |
| 2026-05-09 01:34 | -28.65067 | -50.29922 | 24616 ft | 371 kts | 225° |
| 2026-05-09 01:34 | -28.67215 | -50.31485 | 24141 ft | 370 kts | 225° |
| 2026-05-09 01:34 | -28.69389 | -50.33071 | 23657 ft | 370 kts | 224° |
| 2026-05-09 01:34 | -28.71567 | -50.34661 | 23112 ft | 370 kts | 224° |
| 2026-05-09 01:35 | -28.73646 | -50.36334 | 22639 ft | 360 kts | 230° |
| 2026-05-09 01:35 | -28.75594 | -50.38059 | 22191 ft | 358 kts | 229° |
| 2026-05-09 01:35 | -28.77561 | -50.39794 | 21735 ft | 356 kts | 229° |
| 2026-05-09 01:35 | -28.79518 | -50.41518 | 21300 ft | 355 kts | 229° |
| 2026-05-09 01:36 | -28.81473 | -50.43244 | 20875 ft | 354 kts | 229° |
| 2026-05-09 01:36 | -28.83420 | -50.44967 | 20419 ft | 353 kts | 229° |
| 2026-05-09 01:36 | -28.85359 | -50.46681 | 19981 ft | 351 kts | 229° |
| 2026-05-09 01:36 | -28.87289 | -50.48392 | 19546 ft | 350 kts | 229° |
| 2026-05-09 01:37 | -28.89185 | -50.50077 | 19117 ft | 349 kts | 229° |
| 2026-05-09 01:37 | -28.91103 | -50.51778 | 18691 ft | 348 kts | 229° |
| 2026-05-09 01:37 | -28.93016 | -50.53474 | 18266 ft | 348 kts | 228° |
| 2026-05-09 01:37 | -28.94925 | -50.55166 | 17793 ft | 347 kts | 228° |
| 2026-05-09 01:38 | -28.96826 | -50.56849 | 17368 ft | 345 kts | 228° |
| 2026-05-09 01:38 | -28.98721 | -50.58526 | 16951 ft | 342 kts | 228° |
| 2026-05-09 01:38 | -29.00601 | -50.60188 | 16534 ft | 340 kts | 228° |
| 2026-05-09 01:38 | -29.02440 | -50.61821 | 16123 ft | 339 kts | 228° |
| 2026-05-09 01:39 | -29.04338 | -50.63440 | 15705 ft | 341 kts | 226° |
| 2026-05-09 01:39 | -29.06300 | -50.64981 | 15308 ft | 342 kts | 224° |
| 2026-05-09 01:39 | -29.08290 | -50.66475 | 14884 ft | 342 kts | 223° |
| 2026-05-09 01:39 | -29.10284 | -50.67944 | 14476 ft | 339 kts | 223° |
| 2026-05-09 01:40 | -29.12226 | -50.69391 | 14023 ft | 324 kts | 227° |
| 2026-05-09 01:40 | -29.13844 | -50.70996 | 13622 ft | 305 kts | 233° |
| 2026-05-09 01:40 | -29.15364 | -50.72654 | 13195 ft | 299 kts | 234° |
| 2026-05-09 01:40 | -29.16850 | -50.74297 | 12797 ft | 296 kts | 233° |
| 2026-05-09 01:41 | -29.18327 | -50.75944 | 12411 ft | 296 kts | 233° |
| 2026-05-09 01:41 | -29.19800 | -50.77592 | 12014 ft | 296 kts | 233° |
| 2026-05-09 01:41 | -29.21269 | -50.79235 | 11621 ft | 296 kts | 232° |
| 2026-05-09 01:41 | -29.22747 | -50.80877 | 11231 ft | 295 kts | 232° |
| 2026-05-09 01:42 | -29.24222 | -50.82512 | 10838 ft | 295 kts | 231° |
| 2026-05-09 01:42 | -29.25704 | -50.84152 | 10446 ft | 295 kts | 231° |
| 2026-05-09 01:42 | -29.27167 | -50.85770 | 10058 ft | 296 kts | 230° |
| 2026-05-09 01:42 | -29.28640 | -50.87401 | 9793 ft | 290 kts | 230° |
| 2026-05-09 01:43 | -29.30094 | -50.89009 | 9301 ft | 292 kts | 230° |
| 2026-05-09 01:43 | -29.31553 | -50.90630 | 8859 ft | 291 kts | 230° |
| 2026-05-09 01:43 | -29.32984 | -50.92220 | 8497 ft | 288 kts | 230° |
| 2026-05-09 01:43 | -29.34411 | -50.93805 | 8173 ft | 281 kts | 230° |
| 2026-05-09 01:44 | -29.35783 | -50.95322 | 7820 ft | 266 kts | 230° |
| 2026-05-09 01:44 | -29.36805 | -50.96956 | 7480 ft | 241 kts | 255° |
| 2026-05-09 01:44 | -29.36941 | -50.98766 | 7175 ft | 222 kts | 283° |
| 2026-05-09 01:44 | -29.36324 | -51.00295 | 6874 ft | 211 kts | 308° |
| 2026-05-09 01:45 | -29.35302 | -51.01469 | 6583 ft | 205 kts | 313° |
| 2026-05-09 01:45 | -29.34286 | -51.02591 | 6295 ft | 201 kts | 313° |
| 2026-05-09 01:45 | -29.33292 | -51.03690 | 5983 ft | 195 kts | 313° |
| 2026-05-09 01:45 | -29.32330 | -51.04755 | 5705 ft | 188 kts | 313° |
| 2026-05-09 01:46 | -29.31407 | -51.05779 | 5459 ft | 181 kts | 313° |
| 2026-05-09 01:46 | -29.30536 | -51.06744 | 5257 ft | 167 kts | 313° |
| 2026-05-09 01:46 | -29.29750 | -51.07615 | 5048 ft | 151 kts | 313° |
| 2026-05-09 01:46 | -29.29035 | -51.08409 | 4876 ft | 137 kts | 313° |
| 2026-05-09 01:47 | -29.28363 | -51.09157 | 4685 ft | 133 kts | 313° |
| 2026-05-09 01:47 | -29.27702 | -51.09895 | 4502 ft | 132 kts | 313° |
| 2026-05-09 01:47 | -29.27044 | -51.10626 | 4330 ft | 132 kts | 313° |
| 2026-05-09 01:47 | -29.26386 | -51.11357 | 4150 ft | 131 kts | 313° |
| 2026-05-09 01:48 | -29.25732 | -51.12084 | 3983 ft | 131 kts | 315° |
| 2026-05-09 01:48 | -29.25077 | -51.12810 | 3817 ft | 131 kts | 315° |
| 2026-05-09 01:48 | -29.24422 | -51.13535 | 3632 ft | 131 kts | 315° |
| 2026-05-09 01:48 | -29.23768 | -51.14260 | 3456 ft | 130 kts | 315° |
| 2026-05-09 01:49 | -29.23111 | -51.14989 | 3290 ft | 131 kts | 315° |
| 2026-05-09 01:49 | -29.22468 | -51.15704 | 3119 ft | 130 kts | 315° |
| 2026-05-09 01:49 | -29.21817 | -51.16428 | 2926 ft | 130 kts | 315° |
| 2026-05-09 01:49 | -29.21162 | -51.17153 | 2746 ft | 132 kts | 315° |
| 2026-05-09 01:50 | -29.20502 | -51.17892 | 2539 ft | 133 kts | 316° |
| 2026-05-09 01:50 | -29.19862 | -51.18602 | 2472 ft | 114 kts | 316° |
| 2026-05-09 01:50 | -29.19504 | -51.18997 | 2470 ft | 38 kts | 315° |
| 2026-05-09 01:50 | -29.19322 | -51.19198 | 2470 ft | 28 kts | 316° |
| 2026-05-09 01:51 | -29.19271 | -51.19254 | 2472 ft | 2 kts | 210° |
| 2026-05-09 01:51 | -29.19292 | -51.19232 | 2470 ft | 7 kts | 134° |
| 2026-05-09 01:51 | -29.19356 | -51.19162 | 2471 ft | 19 kts | 136° |
| 2026-05-09 01:51 | -29.19462 | -51.19042 | 2469 ft | 20 kts | 136° |
| 2026-05-09 01:52 | -29.19562 | -51.18932 | 2473 ft | 20 kts | 136° |
| 2026-05-09 01:52 | -29.19616 | -51.18846 | 2474 ft | 10 kts | 76° |
| 2026-05-09 01:52 | -29.19580 | -51.18795 | 2472 ft | 0 kts | 46° |
| 2026-05-09 01:56 | -29.19562 | -51.18783 | 2472 ft | 5 kts | 15° |
| 2026-05-09 01:56 | -29.19523 | -51.18767 | 2473 ft | 8 kts | 44° |
| 2026-05-09 01:56 | -29.19510 | -51.18754 | 2474 ft | 0 kts | 44° |